Time;durP1;ratioP1;P1;durP2;ratioP2;P2;SDS_P1;SDS_P2;PMS_P1;PMS_P2;Temp;Humidity;BMP_temperature;BMP_pressure;BME280_temperature;BME280_humidity;BME280_pressure;Samples;Min_cycle;Max_cycle;Signal;HPM_P1;HPM_P2
2023/10/27 00:00:23;;;;;;;11.00;9.90;;;13.60;99.90;;;;;;5074041;28;20448;-59
2023/10/27 00:02:50;;;;;;;11.10;9.10;;;13.60;99.90;;;;;;5073979;28;20444;-59
2023/10/27 00:05:16;;;;;;;11.50;8.73;;;13.60;99.90;;;;;;5073907;28;20488;-59
2023/10/27 00:07:44;;;;;;;10.30;9.30;;;13.60;99.90;;;;;;5073917;28;20858;-59
2023/10/27 00:10:11;;;;;;;12.43;9.87;;;13.60;99.90;;;;;;5073968;28;20792;-59
2023/10/27 00:12:39;;;;;;;11.00;8.13;;;13.70;99.90;;;;;;5074028;28;20487;-59
2023/10/27 00:15:07;;;;;;;9.77;8.77;;;13.70;99.90;;;;;;5074276;28;20555;-59
2023/10/27 00:17:33;;;;;;;7.20;6.47;;;13.70;99.90;;;;;;5074396;28;20441;-59
2023/10/27 00:20:00;;;;;;;12.70;9.00;;;13.70;99.90;;;;;;5073882;28;20440;-59
2023/10/27 00:22:27;;;;;;;12.60;8.03;;;13.60;99.90;;;;;;5073409;28;20460;-59
2023/10/27 00:24:55;;;;;;;15.80;8.33;;;13.60;99.90;;;;;;5073593;28;20567;-59
2023/10/27 00:27:22;;;;;;;8.23;7.20;;;13.60;99.90;;;;;;5074461;28;20452;-59
2023/10/27 00:29:49;;;;;;;11.20;6.60;;;13.60;99.90;;;;;;5073397;28;20456;-59
2023/10/27 00:32:15;;;;;;;12.50;6.50;;;13.50;99.90;;;;;;5073537;28;20464;-59
2023/10/27 00:34:42;;;;;;;13.83;6.87;;;13.40;99.90;;;;;;5073546;28;20444;-59
2023/10/27 00:37:09;;;;;;;11.57;5.20;;;13.40;99.90;;;;;;5073574;28;20451;-59
2023/10/27 00:39:35;;;;;;;11.83;4.30;;;13.40;99.90;;;;;;5073609;28;20444;-59
2023/10/27 00:42:04;;;;;;;7.80;4.10;;;13.30;99.90;;;;;;5073434;28;20514;-59
2023/10/27 00:44:30;;;;;;;7.87;4.30;;;13.20;99.90;;;;;;5073746;28;20812;-59
2023/10/27 00:46:57;;;;;;;10.23;5.00;;;13.10;99.90;;;;;;5072945;28;20455;-59
2023/10/27 00:49:27;;;;;;;8.47;4.47;;;13.00;99.90;;;;;;5073346;28;20441;-59
2023/10/27 00:51:54;;;;;;;13.77;4.33;;;12.90;99.90;;;;;;5072962;28;20985;-59
2023/10/27 00:54:22;;;;;;;8.27;5.67;;;12.90;99.90;;;;;;5073537;28;20448;-59
2023/10/27 00:56:50;;;;;;;9.70;4.53;;;12.80;99.90;;;;;;5073015;28;20452;-59
2023/10/27 00:59:18;;;;;;;9.40;4.57;;;12.80;99.90;;;;;;5073279;28;20524;-59
2023/10/27 01:01:45;;;;;;;15.80;5.53;;;12.70;99.90;;;;;;5072904;28;20992;-59
2023/10/27 01:04:12;;;;;;;8.90;4.40;;;12.70;99.90;;;;;;5073151;28;20459;-59
2023/10/27 01:06:39;;;;;;;8.50;4.37;;;12.70;99.90;;;;;;5072851;28;20472;-59
2023/10/27 01:09:07;;;;;;;8.87;4.27;;;12.70;99.90;;;;;;5073242;28;20449;-59
2023/10/27 01:11:34;;;;;;;10.20;4.37;;;12.70;99.90;;;;;;5073080;28;20563;-59
2023/10/27 01:14:01;;;;;;;9.47;4.00;;;12.60;99.90;;;;;;5073145;28;20862;-59
2023/10/27 01:16:29;;;;;;;9.33;4.03;;;12.60;99.90;;;;;;5073113;28;20449;-59
2023/10/27 01:18:56;;;;;;;11.93;3.40;;;12.60;99.90;;;;;;5073077;28;20449;-59
2023/10/27 01:21:23;;;;;;;8.63;3.30;;;12.60;99.90;;;;;;5072765;28;20861;-59
2023/10/27 01:23:51;;;;;;;10.23;4.27;;;12.60;99.90;;;;;;5073073;28;20791;-59
2023/10/27 01:26:17;;;;;;;13.27;3.50;;;12.50;99.90;;;;;;5073031;28;20488;-59
2023/10/27 01:28:44;;;;;;;11.00;3.80;;;12.60;99.90;;;;;;5073040;28;20448;-59
2023/10/27 01:31:11;;;;;;;12.93;3.70;;;12.60;99.90;;;;;;5072589;28;21011;-59
2023/10/27 01:33:38;;;;;;;7.67;3.63;;;12.60;99.90;;;;;;5072971;28;20853;-59
2023/10/27 01:36:05;;;;;;;12.40;3.03;;;12.70;99.90;;;;;;5072628;28;20475;-59
2023/10/27 01:38:32;;;;;;;9.43;3.97;;;12.70;99.90;;;;;;5072883;28;20451;-59
2023/10/27 01:41:00;;;;;;;9.40;3.70;;;12.70;99.90;;;;;;5073391;28;20460;-59
2023/10/27 01:43:27;;;;;;;10.40;3.60;;;12.70;99.90;;;;;;5076767;28;20444;-59
2023/10/27 01:45:53;;;;;;;5.07;3.10;;;12.80;99.90;;;;;;5076638;28;20508;-59
2023/10/27 01:48:20;;;;;;;8.23;3.27;;;12.80;99.90;;;;;;5076620;28;20447;-59
2023/10/27 01:50:48;;;;;;;9.53;3.50;;;12.80;99.90;;;;;;5076145;28;20829;-59
2023/10/27 01:53:15;;;;;;;11.13;3.57;;;12.80;99.90;;;;;;5076523;28;20531;-59
2023/10/27 01:55:42;;;;;;;8.07;2.73;;;12.80;99.90;;;;;;5076198;28;20999;-59
2023/10/27 01:58:10;;;;;;;5.43;2.97;;;12.80;99.90;;;;;;5076482;28;20515;-59
2023/10/27 02:00:36;;;;;;;9.20;3.20;;;12.80;99.90;;;;;;5076340;28;20535;-59
2023/10/27 02:03:03;;;;;;;10.73;3.87;;;12.80;99.90;;;;;;5076276;28;20456;-58
2023/10/27 02:05:30;;;;;;;10.00;3.20;;;12.80;99.90;;;;;;5076260;28;20471;-58
2023/10/27 02:07:58;;;;;;;6.63;3.03;;;12.80;99.90;;;;;;5076295;28;20506;-58
2023/10/27 02:10:25;;;;;;;9.13;3.40;;;12.80;99.90;;;;;;5076120;28;20521;-58
2023/10/27 02:12:52;;;;;;;7.33;2.73;;;12.80;99.90;;;;;;5076240;28;20444;-58
2023/10/27 02:15:20;;;;;;;8.40;2.60;;;12.70;99.90;;;;;;5076103;28;20436;-58
2023/10/27 02:17:46;;;;;;;9.40;3.27;;;12.70;99.90;;;;;;5076090;28;20440;-58
2023/10/27 02:20:13;;;;;;;9.63;3.03;;;12.70;99.90;;;;;;5075935;28;20447;-58
2023/10/27 02:22:40;;;;;;;7.87;2.87;;;12.80;99.90;;;;;;5075934;28;20777;-58
2023/10/27 02:25:07;;;;;;;10.60;2.87;;;12.80;99.90;;;;;;5075846;28;20873;-58
2023/10/27 02:27:38;;;;;;;5.43;2.60;;;12.80;99.90;;;;;;5075937;28;20441;-58
2023/10/27 02:30:06;;;;;;;7.20;3.20;;;12.80;99.90;;;;;;5075916;28;20429;-58
2023/10/27 02:32:34;;;;;;;10.90;3.37;;;12.90;99.90;;;;;;5075484;28;20970;-58
2023/10/27 02:35:00;;;;;;;10.93;4.20;;;12.90;99.90;;;;;;5075845;28;20460;-58
2023/10/27 02:37:27;;;;;;;8.13;3.10;;;12.90;99.90;;;;;;5075466;28;20474;-59
2023/10/27 02:39:54;;;;;;;7.97;3.50;;;12.90;99.90;;;;;;5075743;28;20466;-58
2023/10/27 02:42:20;;;;;;;7.40;3.13;;;12.90;99.90;;;;;;5075613;28;20483;-58
2023/10/27 02:44:46;;;;;;;5.73;2.80;;;12.90;99.90;;;;;;5075383;28;20951;-58
2023/10/27 02:47:13;;;;;;;8.10;3.10;;;12.90;99.90;;;;;;5075490;28;20480;-58
2023/10/27 02:49:41;;;;;;;5.87;3.13;;;12.90;99.90;;;;;;5075471;28;20448;-58
2023/10/27 02:52:08;;;;;;;9.50;3.63;;;13.00;99.90;;;;;;5075287;28;20475;-58
2023/10/27 02:54:35;;;;;;;9.33;3.80;;;13.00;99.90;;;;;;5075454;28;20440;-58
2023/10/27 02:57:01;;;;;;;6.43;3.27;;;13.00;99.90;;;;;;5075423;28;20445;-58
2023/10/27 02:59:28;;;;;;;5.97;2.87;;;13.00;99.90;;;;;;5075361;28;20448;-58
2023/10/27 03:01:55;;;;;;;10.07;3.63;;;13.00;99.90;;;;;;5075198;28;20457;-58
2023/10/27 03:04:21;;;;;;;12.80;2.87;;;13.00;99.90;;;;;;5075061;28;20529;-58
2023/10/27 03:06:49;;;;;;;10.53;3.23;;;13.00;99.90;;;;;;5075116;28;20484;-58
2023/10/27 03:09:16;;;;;;;14.93;4.07;;;13.00;99.90;;;;;;5074780;28;20852;-58
2023/10/27 03:11:43;;;;;;;7.77;3.20;;;12.90;99.90;;;;;;5075011;28;20468;-58
2023/10/27 03:14:09;;;;;;;5.43;2.90;;;12.90;99.90;;;;;;5075152;28;20448;-59
2023/10/27 03:16:36;;;;;;;7.93;2.80;;;12.90;99.90;;;;;;5076197;28;20437;-59
2023/10/27 03:19:03;;;;;;;8.93;3.50;;;12.90;99.90;;;;;;5076053;28;20443;-58
2023/10/27 03:21:30;;;;;;;8.83;3.27;;;12.90;99.90;;;;;;5075416;28;20500;-58
2023/10/27 03:23:58;;;;;;;7.60;2.67;;;13.00;99.90;;;;;;5075005;28;20440;-58
2023/10/27 03:26:24;;;;;;;9.30;3.40;;;13.00;99.90;;;;;;5074468;28;21025;-58
2023/10/27 03:28:51;;;;;;;8.23;3.03;;;13.00;99.90;;;;;;5074447;28;20811;-58
2023/10/27 03:31:18;;;;;;;5.47;3.10;;;13.00;99.90;;;;;;5074597;28;20465;-58
2023/10/27 03:33:44;;;;;;;11.67;2.80;;;13.00;99.90;;;;;;5074701;28;20451;-58
2023/10/27 03:36:11;;;;;;;8.00;3.47;;;13.00;99.90;;;;;;5074605;28;20437;-58
2023/10/27 03:38:38;;;;;;;10.60;3.57;;;13.00;99.90;;;;;;5074591;28;20452;-58
2023/10/27 03:41:06;;;;;;;6.30;3.20;;;13.00;99.90;;;;;;5074456;28;20465;-58
2023/10/27 03:43:34;;;;;;;6.93;3.20;;;13.00;99.90;;;;;;5074524;28;20448;-58
2023/10/27 03:46:01;;;;;;;6.43;2.80;;;13.00;99.90;;;;;;5074315;28;20557;-59
2023/10/27 03:48:27;;;;;;;12.30;3.70;;;13.00;99.90;;;;;;5074282;28;20448;-59
2023/10/27 03:50:54;;;;;;;7.93;3.10;;;13.00;99.90;;;;;;5074207;28;20645;-59
2023/10/27 03:53:21;;;;;;;10.10;3.43;;;13.10;99.90;;;;;;5074293;28;20448;-59
2023/10/27 03:55:52;;;;;;;6.67;2.87;;;13.00;99.90;;;;;;5074282;28;20470;-59
2023/10/27 03:58:20;;;;;;;9.17;3.33;;;13.00;99.90;;;;;;5074181;28;20436;-59
2023/10/27 04:00:47;;;;;;;4.17;2.73;;;13.10;99.90;;;;;;5074010;28;20469;-59
2023/10/27 04:03:14;;;;;;;6.70;2.90;;;13.10;99.90;;;;;;5073815;28;20456;-59
2023/10/27 04:05:40;;;;;;;6.53;3.53;;;13.10;99.90;;;;;;5073711;28;20848;-59
2023/10/27 04:08:07;;;;;;;7.37;4.70;;;13.00;99.90;;;;;;5073697;28;20441;-59
2023/10/27 04:10:35;;;;;;;9.40;3.40;;;13.00;99.90;;;;;;5073655;28;20468;-59
2023/10/27 04:13:02;;;;;;;8.50;3.77;;;13.00;99.90;;;;;;5073933;28;20502;-59
2023/10/27 04:15:30;;;;;;;7.13;3.30;;;13.00;99.90;;;;;;5073875;28;20475;-59
2023/10/27 04:17:57;;;;;;;7.70;3.47;;;13.00;99.90;;;;;;5073856;28;20444;-59
2023/10/27 04:20:23;;;;;;;7.70;4.33;;;13.10;99.90;;;;;;5073794;28;20467;-59
2023/10/27 04:22:50;;;;;;;9.33;4.00;;;13.00;99.90;;;;;;5073746;28;20444;-59
2023/10/27 04:25:17;;;;;;;8.77;4.03;;;13.10;99.90;;;;;;5073432;28;20860;-59
2023/10/27 04:27:44;;;;;;;10.83;5.00;;;13.00;99.90;;;;;;5073917;28;20476;-59
2023/10/27 04:30:11;;;;;;;13.13;4.67;;;13.10;99.90;;;;;;5073702;28;20445;-59
2023/10/27 04:32:40;;;;;;;5.40;3.60;;;13.10;99.90;;;;;;5073622;28;20456;-59
2023/10/27 04:35:09;;;;;;;6.10;3.13;;;13.10;99.90;;;;;;5073536;28;20471;-59
2023/10/27 04:37:36;;;;;;;5.97;3.33;;;13.00;99.90;;;;;;5073533;28;20490;-59
2023/10/27 04:40:03;;;;;;;9.60;3.53;;;13.00;99.90;;;;;;5073551;28;20448;-59
2023/10/27 04:42:30;;;;;;;6.33;3.57;;;13.00;99.90;;;;;;5073427;28;20465;-58
2023/10/27 04:44:56;;;;;;;6.17;3.20;;;13.00;99.90;;;;;;5073169;28;20831;-58
2023/10/27 04:47:23;;;;;;;9.00;3.63;;;13.00;99.90;;;;;;5073472;28;20481;-58
2023/10/27 04:49:53;;;;;;;15.10;4.50;;;13.00;99.90;;;;;;5073345;28;20452;-58
2023/10/27 04:52:20;;;;;;;8.70;4.10;;;13.00;99.90;;;;;;5073405;28;20583;-58
2023/10/27 04:54:46;;;;;;;7.13;3.57;;;13.00;99.90;;;;;;5073541;28;20498;-58
2023/10/27 04:57:13;;;;;;;10.03;4.27;;;13.00;99.90;;;;;;5073437;28;20441;-58
2023/10/27 04:59:40;;;;;;;5.93;3.50;;;13.00;99.90;;;;;;5073404;28;20464;-58
2023/10/27 05:02:06;;;;;;;9.70;3.77;;;13.00;99.90;;;;;;5073531;28;20464;-58
2023/10/27 05:04:33;;;;;;;7.30;3.37;;;13.00;99.90;;;;;;5073230;28;20456;-58
2023/10/27 05:07:03;;;;;;;12.07;5.10;;;13.00;99.90;;;;;;5073235;28;20494;-58
2023/10/27 05:09:30;;;;;;;9.63;4.87;;;13.00;99.90;;;;;;5073364;28;20484;-58
2023/10/27 05:11:57;;;;;;;12.23;5.40;;;13.00;99.90;;;;;;5073089;28;20469;-58
2023/10/27 05:14:23;;;;;;;10.13;5.07;;;13.00;99.90;;;;;;5073300;28;20467;-58
2023/10/27 05:16:50;;;;;;;11.53;4.90;;;13.00;99.90;;;;;;5074963;28;20444;-58
2023/10/27 05:19:17;;;;;;;12.87;6.10;;;13.00;99.90;;;;;;5076937;28;20440;-58
2023/10/27 05:21:43;;;;;;;8.10;4.50;;;13.00;99.90;;;;;;5076973;28;20835;-58
2023/10/27 05:24:12;;;;;;;12.70;4.87;;;13.00;99.90;;;;;;5077151;28;20448;-58
2023/10/27 05:26:38;;;;;;;14.87;4.10;;;12.90;99.90;;;;;;5077009;28;20508;-58
2023/10/27 05:29:05;;;;;;;9.17;3.40;;;12.90;99.90;;;;;;5077017;28;20455;-58
2023/10/27 05:31:32;;;;;;;10.20;3.80;;;12.90;99.90;;;;;;5076896;28;20470;-58
2023/10/27 05:33:59;;;;;;;7.90;3.57;;;12.90;99.90;;;;;;5076947;28;20448;-58
2023/10/27 05:36:26;;;;;;;8.47;4.30;;;12.90;99.90;;;;;;5077165;28;20436;-57
2023/10/27 05:38:53;;;;;;;8.90;4.00;;;12.90;99.90;;;;;;5076529;28;20523;-57
2023/10/27 05:41:21;;;;;;;6.70;3.43;;;12.90;99.90;;;;;;5076761;28;20464;-58
2023/10/27 05:43:50;;;;;;;10.50;4.53;;;12.90;99.90;;;;;;5076760;28;20451;-57
2023/10/27 05:46:18;;;;;;;11.10;4.23;;;12.90;99.90;;;;;;5076321;28;20972;-57
2023/10/27 05:48:45;;;;;;;7.83;4.23;;;12.90;99.90;;;;;;5076652;28;20448;-57
2023/10/27 05:51:11;;;;;;;9.50;3.67;;;12.90;99.90;;;;;;5076522;28;20464;-57
2023/10/27 05:53:38;;;;;;;10.40;4.00;;;12.90;99.90;;;;;;5076252;28;20448;-57
2023/10/27 05:56:05;;;;;;;9.63;4.43;;;12.90;99.90;;;;;;5076570;28;20445;-57
2023/10/27 05:58:34;;;;;;;6.17;4.10;;;12.90;99.90;;;;;;5076332;28;20957;-57
2023/10/27 06:01:01;;;;;;;10.30;3.90;;;12.90;99.90;;;;;;5076342;28;20564;-57
2023/10/27 06:03:28;;;;;;;5.80;3.70;;;13.00;99.90;;;;;;5076115;28;20456;-57
2023/10/27 06:05:54;;;;;;;13.70;4.53;;;13.00;99.90;;;;;;5076327;28;20445;-57
2023/10/27 06:08:21;;;;;;;12.03;4.80;;;13.00;99.90;;;;;;5076215;28;20538;-57
2023/10/27 06:10:48;;;;;;;8.33;4.43;;;13.00;99.90;;;;;;5075878;28;20924;-57
2023/10/27 06:13:14;;;;;;;7.57;5.10;;;13.00;99.90;;;;;;5076176;28;20444;-57
2023/10/27 06:15:43;;;;;;;7.77;4.70;;;13.00;99.90;;;;;;5075810;28;20994;-57
2023/10/27 06:18:09;;;;;;;12.20;5.30;;;13.00;99.90;;;;;;5076280;28;20490;-58
2023/10/27 06:20:36;;;;;;;15.23;5.83;;;13.00;99.90;;;;;;5076962;28;20471;-57
2023/10/27 06:23:03;;;;;;;12.80;5.90;;;13.00;99.90;;;;;;5076818;28;20448;-57
2023/10/27 06:25:29;;;;;;;6.03;5.07;;;13.00;99.90;;;;;;5076230;28;20483;-57
2023/10/27 06:27:56;;;;;;;7.47;5.10;;;13.00;99.90;;;;;;5075461;28;20483;-57
2023/10/27 06:30:23;;;;;;;8.93;5.90;;;13.00;99.90;;;;;;5075937;28;20444;-57
2023/10/27 06:32:51;;;;;;;8.57;5.27;;;13.10;99.90;;;;;;5075990;28;20449;-57
2023/10/27 06:35:18;;;;;;;7.30;5.10;;;13.10;99.90;;;;;;5075484;28;20860;-58
2023/10/27 06:37:44;;;;;;;10.60;6.07;;;13.10;99.90;;;;;;5075511;28;20957;-58
2023/10/27 06:40:12;;;;;;;12.30;6.13;;;13.10;99.90;;;;;;5075601;28;20813;-58
2023/10/27 06:42:39;;;;;;;10.00;5.47;;;13.10;99.90;;;;;;5075800;28;20547;-57
2023/10/27 06:45:08;;;;;;;11.47;6.43;;;13.10;99.90;;;;;;5075641;28;20457;-57
2023/10/27 06:47:35;;;;;;;9.03;4.90;;;13.10;99.90;;;;;;5075610;28;20480;-57
2023/10/27 06:50:04;;;;;;;15.13;6.03;;;13.10;99.90;;;;;;5076422;28;20436;-57
2023/10/27 06:52:31;;;;;;;5.03;3.57;;;13.20;99.90;;;;;;5075403;28;20522;-58
2023/10/27 06:54:58;;;;;;;6.90;4.27;;;13.20;99.90;;;;;;5075464;28;20503;-58
2023/10/27 06:57:25;;;;;;;9.00;3.50;;;13.10;99.90;;;;;;5075052;28;20502;-58
2023/10/27 06:59:55;;;;;;;4.20;2.80;;;13.10;99.90;;;;;;5075015;28;20934;-58
2023/10/27 07:02:21;;;;;;;4.23;2.70;;;13.00;99.90;;;;;;5075539;28;20487;-58
2023/10/27 07:04:48;;;;;;;6.53;2.93;;;13.00;99.90;;;;;;5075174;28;20449;-57
2023/10/27 07:07:16;;;;;;;3.60;2.70;;;12.90;99.90;;;;;;5075176;28;20488;-57
2023/10/27 07:09:43;;;;;;;5.57;2.87;;;12.90;99.90;;;;;;5075140;28;20510;-57
2023/10/27 07:12:10;;;;;;;4.70;3.00;;;12.80;99.90;;;;;;5075098;28;20517;-57
2023/10/27 07:14:37;;;;;;;5.37;2.40;;;12.80;99.90;;;;;;5075033;28;20444;-57
2023/10/27 07:17:04;;;;;;;3.53;2.63;;;12.70;99.90;;;;;;5074983;28;20451;-57
2023/10/27 07:19:33;;;;;;;4.40;3.10;;;12.70;99.90;;;;;;5074869;28;20806;-56
2023/10/27 07:22:00;;;;;;;5.40;3.43;;;12.70;99.90;;;;;;5074921;28;20461;-57
2023/10/27 07:24:29;;;;;;;4.37;2.90;;;12.70;99.90;;;;;;5075008;28;20441;-57
2023/10/27 07:26:56;;;;;;;4.77;3.77;;;12.70;99.90;;;;;;5074814;28;20491;-57
2023/10/27 07:29:23;;;;;;;3.90;2.70;;;12.60;99.90;;;;;;5074924;28;20444;-58
2023/10/27 07:31:49;;;;;;;4.63;2.47;;;12.60;99.90;;;;;;5074425;28;20852;-59
2023/10/27 07:34:16;;;;;;;2.50;2.30;;;12.60;99.90;;;;;;5074885;28;20464;-59
2023/10/27 07:36:43;;;;;;;3.27;2.10;;;12.60;99.90;;;;;;5074628;28;20511;-58
2023/10/27 07:39:09;;;;;;;4.13;2.47;;;12.70;99.90;;;;;;5074100;28;20452;-58
2023/10/27 07:41:37;;;;;;;3.13;2.03;;;12.70;99.90;;;;;;5074406;28;20507;-57
2023/10/27 07:44:05;;;;;;;2.77;2.30;;;12.80;99.90;;;;;;5074522;28;20445;-57
2023/10/27 07:46:32;;;;;;;5.27;1.97;;;12.80;99.90;;;;;;5074336;28;20498;-57
2023/10/27 07:48:59;;;;;;;4.43;2.80;;;12.80;99.90;;;;;;5074319;28;20519;-58
2023/10/27 07:51:26;;;;;;;3.70;3.07;;;12.80;99.90;;;;;;5074281;28;20468;-58
2023/10/27 07:53:52;;;;;;;3.80;3.50;;;12.90;99.90;;;;;;5074259;28;20467;-59
2023/10/27 07:56:19;;;;;;;4.87;3.60;;;12.80;99.90;;;;;;5074249;28;20452;-58
2023/10/27 07:58:48;;;;;;;6.57;4.43;;;12.80;99.90;;;;;;5074191;28;20436;-58
2023/10/27 08:01:15;;;;;;;5.33;3.90;;;12.70;99.90;;;;;;5074096;28;20500;-58
2023/10/27 08:03:42;;;;;;;6.43;4.07;;;12.70;99.90;;;;;;5073966;28;20459;-58
2023/10/27 08:06:08;;;;;;;8.03;4.60;;;12.70;99.90;;;;;;5074011;28;20484;-58
2023/10/27 08:08:37;;;;;;;4.33;3.93;;;12.70;99.90;;;;;;5073965;28;20481;-58
2023/10/27 08:11:05;;;;;;;5.50;4.13;;;12.70;99.90;;;;;;5073877;28;20465;-57
2023/10/27 08:13:31;;;;;;;5.83;4.20;;;12.80;99.90;;;;;;5073894;28;20491;-58
2023/10/27 08:16:00;;;;;;;6.30;4.90;;;12.80;99.90;;;;;;5073818;28;20450;-58
2023/10/27 08:18:27;;;;;;;4.87;4.40;;;12.80;99.90;;;;;;5073801;28;20451;-58
2023/10/27 08:20:56;;;;;;;5.10;4.70;;;12.70;99.90;;;;;;5073697;28;20468;-58
2023/10/27 08:23:22;;;;;;;6.63;5.33;;;12.60;99.90;;;;;;5073378;28;20839;-58
2023/10/27 08:25:51;;;;;;;7.53;5.30;;;12.60;99.90;;;;;;5073476;28;20849;-58
2023/10/27 08:28:18;;;;;;;7.23;5.30;;;12.50;99.90;;;;;;5073705;28;20516;-57
2023/10/27 08:30:44;;;;;;;7.03;6.23;;;12.60;99.90;;;;;;5073589;28;20869;-57
2023/10/27 08:33:14;;;;;;;8.00;7.17;;;12.70;99.90;;;;;;5073736;28;20448;-57
2023/10/27 08:35:41;;;;;;;7.20;5.13;;;12.70;99.90;;;;;;5073225;28;20946;-57
2023/10/27 08:38:08;;;;;;;5.77;5.20;;;12.80;99.90;;;;;;5073653;28;20437;-58
2023/10/27 08:40:35;;;;;;;7.90;5.73;;;12.90;99.90;;;;;;5073380;28;20464;-56
2023/10/27 08:43:03;;;;;;;6.60;6.00;;;12.90;99.90;;;;;;5073178;28;20818;-58
2023/10/27 08:45:32;;;;;;;8.20;5.60;;;12.90;99.90;;;;;;5073013;28;20950;-57
2023/10/27 08:48:00;;;;;;;6.13;5.07;;;12.90;99.90;;;;;;5072922;28;21084;-57
2023/10/27 08:50:29;;;;;;;6.97;5.70;;;12.80;99.90;;;;;;5073103;28;20890;-57
2023/10/27 08:52:56;;;;;;;6.17;5.50;;;12.80;99.90;;;;;;5073446;28;20449;-57
2023/10/27 08:55:23;;;;;;;6.70;5.30;;;12.80;99.90;;;;;;5073353;28;20452;-57
2023/10/27 08:57:49;;;;;;;7.10;5.83;;;12.80;99.90;;;;;;5073343;28;20808;-57
2023/10/27 09:00:17;;;;;;;5.40;4.53;;;12.90;99.90;;;;;;5073243;28;20510;-57
2023/10/27 09:02:43;;;;;;;6.23;5.63;;;12.90;99.90;;;;;;5073114;28;20479;-57
2023/10/27 09:05:11;;;;;;;7.77;5.77;;;13.00;99.90;;;;;;5073228;28;20448;-57
2023/10/27 09:07:40;;;;;;;6.73;5.90;;;13.10;99.90;;;;;;5073148;28;20567;-57
2023/10/27 09:10:07;;;;;;;7.70;5.83;;;13.10;99.90;;;;;;5073201;28;20444;-57
2023/10/27 09:12:36;;;;;;;8.00;6.27;;;13.00;99.90;;;;;;5073165;28;20465;-57
2023/10/27 09:15:05;;;;;;;9.10;6.10;;;13.10;99.90;;;;;;5073451;28;20455;-57
2023/10/27 09:17:49;;;;;;;6.13;5.10;;;13.20;99.90;;;;;;5073155;28;20510;-57
2023/10/27 09:20:16;;;;;;;6.40;5.83;;;13.30;99.90;;;;;;5073185;28;20425;-57
2023/10/27 09:22:55;;;;;;;6.87;4.53;;;13.40;99.90;;;;;;5073098;28;20451;-57
2023/10/27 09:25:22;;;;;;;5.67;4.50;;;13.40;99.90;;;;;;5073304;28;20432;-59
2023/10/27 09:27:49;;;;;;;4.87;4.43;;;13.50;99.90;;;;;;5072816;28;21025;-59
2023/10/27 09:30:26;;;;;;;6.37;4.73;;;13.50;99.90;;;;;;5073216;28;20444;-59
2023/10/27 09:32:53;;;;;;;5.60;4.70;;;13.50;99.90;;;;;;5073933;28;20421;-59
2023/10/27 09:35:22;;;;;;;8.00;5.40;;;13.50;99.90;;;;;;5073121;28;20437;-59
2023/10/27 09:37:51;;;;;;;5.30;4.57;;;13.60;99.90;;;;;;5072772;28;21012;-59
2023/10/27 09:40:18;;;;;;;5.73;4.70;;;13.60;99.90;;;;;;5072872;28;20539;-59
2023/10/27 09:42:45;;;;;;;4.77;4.30;;;13.70;99.90;;;;;;5073011;28;20795;-59
2023/10/27 09:45:13;;;;;;;5.07;3.70;;;13.80;99.90;;;;;;5072922;28;20448;-59
2023/10/27 09:47:46;;;;;;;5.60;4.57;;;13.80;99.90;;;;;;5072463;28;20533;-59
2023/10/27 09:50:14;;;;;;;5.50;5.00;;;13.70;99.90;;;;;;5073138;28;20428;-59
2023/10/27 09:52:44;;;;;;;5.83;5.17;;;13.80;99.90;;;;;;5072942;28;20448;-59
2023/10/27 09:55:14;;;;;;;7.13;6.50;;;13.90;99.90;;;;;;5072764;28;20515;-59
2023/10/27 09:57:42;;;;;;;8.50;6.00;;;14.00;99.90;;;;;;5072813;28;20441;-59
2023/10/27 10:00:13;;;;;;;9.73;6.80;;;14.00;99.90;;;;;;5072729;28;20467;-59
2023/10/27 10:02:42;;;;;;;6.80;6.07;;;14.10;99.90;;;;;;5074404;28;20435;-59
2023/10/27 10:05:11;;;;;;;7.30;6.60;;;14.00;99.90;;;;;;5076321;28;20448;-59
2023/10/27 10:07:41;;;;;;;9.83;6.53;;;14.10;99.90;;;;;;5076273;28;20449;-58
2023/10/27 10:10:20;;;;;;;7.00;6.20;;;14.20;99.90;;;;;;5076062;28;20984;-58
2023/10/27 10:13:00;;;;;;;12.03;7.00;;;14.30;99.90;;;;;;5076338;28;20421;-58
2023/10/27 10:15:28;;;;;;;7.10;6.00;;;14.30;99.90;;;;;;5076267;28;20444;-59
2023/10/27 10:17:55;;;;;;;8.40;6.27;;;14.50;99.90;;;;;;5076324;28;20468;-59
2023/10/27 10:20:59;;;;;;;9.20;6.57;;;14.50;99.90;;;;;;5076853;28;20441;-59
2023/10/27 10:23:50;;;;;;;8.03;7.10;;;14.50;99.90;;;;;;5076224;28;20482;-59
2023/10/27 10:26:18;;;;;;;14.60;8.50;;;14.50;99.90;;;;;;5060208;28;20457;-59
2023/10/27 10:28:46;;;;;;;12.57;7.10;;;14.40;99.90;;;;;;5075906;28;20476;-57
2023/10/27 10:31:30;;;;;;;10.33;8.10;;;14.40;99.90;;;;;;5075844;28;20468;-57
2023/10/27 10:34:10;;;;;;;9.67;7.63;;;14.30;99.90;;;;;;5075818;28;20444;-57
2023/10/27 10:36:37;;;;;;;12.77;8.73;;;14.20;99.90;;;;;;5075745;28;20498;-57
2023/10/27 10:39:04;;;;;;;8.83;7.00;;;14.10;99.90;;;;;;5075761;28;20444;-57
2023/10/27 10:42:01;;;;;;;17.33;9.00;;;14.10;99.90;;;;;;5075758;28;20460;-57
2023/10/27 10:44:30;;;;;;;9.80;8.20;;;14.10;99.90;;;;;;5075359;28;20447;-57
2023/10/27 10:47:00;;;;;;;9.40;7.67;;;14.10;99.90;;;;;;5075312;28;20902;-57
2023/10/27 10:49:28;;;;;;;8.90;7.20;;;14.10;99.90;;;;;;5075530;28;20476;-57
2023/10/27 10:51:55;;;;;;;9.30;7.60;;;14.10;99.90;;;;;;5075407;28;20833;-59
2023/10/27 10:54:26;;;;;;;14.17;8.07;;;14.00;99.90;;;;;;5075497;28;20441;-59
2023/10/27 10:57:04;;;;;;;14.00;8.23;;;14.00;99.90;;;;;;5075572;28;20452;-59
2023/10/27 10:59:31;;;;;;;11.93;7.90;;;14.00;99.90;;;;;;5075251;28;20431;-59
2023/10/27 11:01:58;;;;;;;9.80;7.53;;;14.00;99.90;;;;;;5075324;28;20590;-59
2023/10/27 11:04:32;;;;;;;12.30;7.53;;;14.10;99.90;;;;;;5074913;28;20943;-59
2023/10/27 11:07:01;;;;;;;10.10;6.80;;;14.20;99.90;;;;;;5075345;28;20429;-59
2023/10/27 11:09:28;;;;;;;10.13;7.00;;;14.30;99.90;;;;;;5075246;28;20480;-57
2023/10/27 11:11:55;;;;;;;10.63;7.43;;;14.30;99.90;;;;;;5075169;28;20829;-57
2023/10/27 11:14:23;;;;;;;9.80;7.57;;;14.40;99.90;;;;;;5075097;28;20472;-58
2023/10/27 11:17:00;;;;;;;12.40;6.77;;;14.70;99.90;;;;;;5075108;28;20449;-58
2023/10/27 11:19:27;;;;;;;8.03;5.90;;;14.90;99.90;;;;;;5075132;28;20609;-58
2023/10/27 11:21:54;;;;;;;8.87;5.87;;;15.20;99.90;;;;;;5074938;28;20491;-58
2023/10/27 11:24:22;;;;;;;9.07;6.37;;;15.50;99.90;;;;;;5075098;28;20441;-59
2023/10/27 11:26:49;;;;;;;9.30;5.63;;;15.80;99.90;;;;;;5074802;28;20476;-59
2023/10/27 11:29:16;;;;;;;8.50;5.30;;;16.00;99.90;;;;;;5074796;28;20472;-59
2023/10/27 11:31:45;;;;;;;6.00;5.40;;;16.10;99.90;;;;;;5074734;28;20518;-59
2023/10/27 11:34:13;;;;;;;8.57;5.43;;;16.20;99.90;;;;;;5074754;28;20536;-59
2023/10/27 11:36:42;;;;;;;8.47;5.63;;;16.40;99.90;;;;;;5074751;28;20447;-59
2023/10/27 11:39:16;;;;;;;8.80;5.27;;;16.50;99.90;;;;;;5074726;28;20825;-59
2023/10/27 11:41:44;;;;;;;6.63;4.90;;;16.60;99.90;;;;;;5074206;28;20467;-59
2023/10/27 11:44:10;;;;;;;12.73;4.37;;;16.40;99.60;;;;;;5074472;28;20447;-59
2023/10/27 11:46:37;;;;;;;10.13;4.60;;;16.20;99.90;;;;;;5074593;28;20449;-59
2023/10/27 11:49:05;;;;;;;11.60;5.10;;;16.20;99.90;;;;;;5074564;28;20484;-59
2023/10/27 11:51:32;;;;;;;7.00;4.80;;;16.00;99.90;;;;;;5074057;28;20460;-59
2023/10/27 11:53:58;;;;;;;7.43;4.70;;;15.90;99.90;;;;;;5073974;28;20441;-59
2023/10/27 11:56:26;;;;;;;5.97;4.30;;;15.90;99.90;;;;;;5074342;28;20478;-59
2023/10/27 11:58:52;;;;;;;10.80;4.80;;;15.80;99.90;;;;;;5073887;28;20963;-57
2023/10/27 12:01:19;;;;;;;8.47;4.20;;;15.60;99.90;;;;;;5074081;28;20461;-57
2023/10/27 12:03:47;;;;;;;11.03;5.63;;;15.40;99.90;;;;;;5074004;28;20457;-57
2023/10/27 12:06:15;;;;;;;11.80;6.13;;;15.30;99.90;;;;;;5074092;28;20452;-57
2023/10/27 12:08:41;;;;;;;6.23;4.83;;;15.10;99.90;;;;;;5073941;28;20485;-57
2023/10/27 12:11:10;;;;;;;6.33;4.77;;;15.00;99.90;;;;;;5073585;28;20471;-57
2023/10/27 12:13:37;;;;;;;7.17;3.03;;;14.90;99.90;;;;;;5073121;28;20452;-57
2023/10/27 12:16:04;;;;;;;3.80;1.90;;;14.80;99.90;;;;;;5073208;28;20449;-57
2023/10/27 12:18:32;;;;;;;3.40;1.77;;;14.50;99.90;;;;;;5074095;28;20436;-57
2023/10/27 12:21:00;;;;;;;3.33;1.97;;;14.40;99.90;;;;;;5073399;28;21130;-57
2023/10/27 12:23:29;;;;;;;5.60;2.10;;;14.30;99.90;;;;;;5073734;28;20445;-57
2023/10/27 12:25:57;;;;;;;3.20;2.43;;;14.10;99.90;;;;;;5073021;28;20943;-57
2023/10/27 12:28:24;;;;;;;5.17;2.50;;;14.10;99.90;;;;;;5073748;28;20455;-57
2023/10/27 12:30:50;;;;;;;9.67;3.27;;;14.10;99.90;;;;;;5073424;28;20966;-58
2023/10/27 12:33:19;;;;;;;5.93;2.90;;;14.30;99.90;;;;;;5074392;28;20449;-59
2023/10/27 12:35:48;;;;;;;5.40;3.00;;;14.60;99.90;;;;;;5074893;28;20441;-59
2023/10/27 12:38:15;;;;;;;3.80;2.63;;;14.80;99.90;;;;;;5074537;28;20891;-59
2023/10/27 12:40:44;;;;;;;6.10;2.30;;;15.10;99.90;;;;;;5074058;28;20460;-59
2023/10/27 12:43:12;;;;;;;6.43;2.97;;;15.20;99.90;;;;;;5073920;28;20484;-59
2023/10/27 12:45:39;;;;;;;7.80;4.43;;;15.20;99.90;;;;;;5073564;28;20448;-59